createdAt,value
2019-03-31T00:00:46.174Z,16.90
2019-03-31T00:03:14.589Z,16.70
2019-03-31T00:05:43.006Z,17.80
2019-03-31T00:08:11.683Z,19.87
2019-03-31T00:10:40.094Z,19.00
2019-03-31T00:13:08.514Z,18.63
2019-03-31T00:15:36.922Z,19.37
2019-03-31T00:18:05.399Z,18.27
2019-03-31T00:20:33.815Z,18.60
2019-03-31T00:23:02.214Z,18.70
2019-03-31T00:25:30.627Z,18.13
2019-03-31T00:27:59.058Z,18.40
2019-03-31T00:30:27.469Z,19.13
2019-03-31T00:32:55.882Z,19.70
2019-03-31T00:35:24.286Z,17.67
2019-03-31T00:37:52.710Z,18.90
2019-03-31T00:40:21.350Z,17.90
2019-03-31T00:42:49.764Z,17.47
2019-03-31T00:45:18.185Z,18.23
2019-03-31T00:47:46.586Z,18.57
2019-03-31T00:50:15.066Z,17.90
2019-03-31T00:52:43.518Z,17.13
2019-03-31T00:55:11.927Z,18.33
2019-03-31T00:57:40.331Z,19.20
2019-03-31T01:00:11.031Z,18.00
2019-03-31T01:02:39.578Z,19.30
2019-03-31T01:05:08.301Z,18.87
2019-03-31T01:07:37.326Z,18.87
2019-03-31T01:10:06.135Z,18.60
2019-03-31T01:12:34.681Z,18.43
2019-03-31T01:15:05.579Z,19.63
2019-03-31T01:17:36.450Z,18.90
2019-03-31T01:20:06.082Z,19.40
2019-03-31T01:22:34.490Z,18.37
2019-03-31T01:25:04.314Z,17.40
2019-03-31T01:27:32.794Z,18.67
2019-03-31T01:30:01.219Z,18.33
2019-03-31T01:32:29.630Z,18.40
2019-03-31T01:34:58.110Z,18.07
2019-03-31T01:37:26.762Z,18.57
2019-03-31T01:39:55.510Z,18.63
2019-03-31T01:42:24.270Z,19.03
2019-03-31T01:44:52.750Z,18.53
2019-03-31T01:47:21.398Z,19.77
2019-03-31T01:49:49.809Z,19.70
2019-03-31T01:52:18.219Z,20.37
2019-03-31T01:54:46.630Z,21.20
2019-03-31T01:57:15.049Z,21.93
2019-03-31T01:59:43.438Z,22.43
2019-03-31T02:02:13.479Z,24.97
2019-03-31T02:04:41.889Z,23.77
2019-03-31T02:07:10.290Z,25.27
2019-03-31T02:09:38.695Z,23.63
2019-03-31T02:12:07.114Z,23.33
2019-03-31T02:14:35.526Z,23.43
2019-03-31T02:17:03.922Z,23.27
2019-03-31T02:19:32.342Z,24.97
2019-03-31T02:22:00.745Z,24.40
2019-03-31T02:24:29.150Z,24.97
2019-03-31T02:26:57.579Z,25.13
2019-03-31T02:29:25.984Z,25.80
2019-03-31T02:31:54.387Z,23.83
2019-03-31T02:34:22.795Z,24.10
2019-03-31T02:36:51.200Z,23.83
2019-03-31T02:39:19.603Z,24.70
2019-03-31T02:41:48.081Z,23.70
2019-03-31T02:44:16.486Z,23.63
2019-03-31T02:46:44.889Z,23.50
2019-03-31T02:49:13.357Z,23.50
2019-03-31T02:51:41.835Z,23.50
2019-03-31T02:54:10.410Z,24.47
2019-03-31T02:56:39.845Z,23.40
2019-03-31T02:59:08.326Z,23.90
2019-03-31T03:01:38.209Z,23.00
2019-03-31T03:04:08.214Z,24.23
2019-03-31T03:06:38.433Z,25.43
2019-03-31T03:09:06.826Z,24.97
2019-03-31T03:11:35.963Z,25.83
2019-03-31T03:14:06.024Z,25.83
2019-03-31T03:16:34.437Z,25.07
2019-03-31T03:19:02.922Z,26.23
2019-03-31T03:21:31.330Z,24.57
2019-03-31T03:23:59.743Z,24.23
2019-03-31T03:26:28.143Z,25.07
2019-03-31T03:28:56.606Z,25.00
2019-03-31T03:31:24.999Z,24.13
2019-03-31T03:33:53.404Z,24.83
2019-03-31T03:36:21.824Z,25.50
2019-03-31T03:38:50.306Z,26.60
2019-03-31T03:41:18.771Z,25.87
2019-03-31T03:43:55.966Z,26.33
2019-03-31T03:46:18.113Z,26.93
2019-03-31T03:48:46.601Z,26.97
2019-03-31T03:51:15.012Z,27.13
2019-03-31T03:53:43.417Z,27.20
2019-03-31T03:56:11.827Z,26.73
2019-03-31T03:58:40.227Z,28.53
2019-03-31T04:01:13.077Z,25.70
2019-03-31T04:03:41.482Z,26.20
2019-03-31T04:06:09.882Z,25.80
2019-03-31T04:08:38.283Z,26.47
2019-03-31T04:11:15.595Z,26.13
2019-03-31T04:13:44.287Z,24.37
2019-03-31T04:16:12.814Z,27.00
2019-03-31T04:18:41.231Z,26.60
2019-03-31T04:21:09.709Z,26.50
2019-03-31T04:23:38.103Z,26.73
2019-03-31T04:26:06.521Z,25.87
2019-03-31T04:28:34.919Z,24.70
2019-03-31T04:31:03.320Z,27.07
2019-03-31T04:33:49.626Z,27.20
2019-03-31T04:36:01.864Z,28.27
2019-03-31T04:38:30.341Z,27.33
2019-03-31T04:40:58.765Z,29.53
2019-03-31T04:43:27.161Z,29.17
2019-03-31T04:45:55.563Z,25.37
2019-03-31T04:48:23.990Z,26.77
2019-03-31T04:50:52.403Z,26.27
2019-03-31T04:53:20.858Z,25.23
2019-03-31T04:55:49.270Z,26.43
2019-03-31T04:58:17.676Z,27.97
2019-03-31T05:00:46.082Z,24.37
2019-03-31T05:03:14.495Z,23.53
2019-03-31T05:05:42.910Z,24.50
2019-03-31T05:08:11.306Z,26.17
2019-03-31T05:10:39.993Z,26.77
2019-03-31T05:13:08.398Z,26.53
2019-03-31T05:15:36.834Z,26.90
2019-03-31T05:18:05.259Z,29.77
2019-03-31T05:20:33.891Z,30.83
2019-03-31T05:23:02.284Z,33.90
2019-03-31T05:25:30.698Z,37.13
2019-03-31T05:27:59.103Z,40.77
2019-03-31T05:30:27.502Z,42.10
2019-03-31T05:32:55.931Z,42.80
2019-03-31T05:35:26.934Z,44.13
2019-03-31T05:37:54.526Z,44.17
2019-03-31T05:40:22.958Z,41.83
2019-03-31T05:42:51.363Z,39.33
2019-03-31T05:45:19.774Z,34.23
2019-03-31T05:47:48.194Z,31.70
2019-03-31T05:50:16.595Z,31.63
2019-03-31T05:52:44.996Z,35.90
2019-03-31T05:55:13.402Z,34.17
2019-03-31T05:57:41.810Z,36.27
2019-03-31T06:00:10.951Z,39.23
2019-03-31T06:02:39.371Z,42.50
2019-03-31T06:05:08.355Z,41.93
2019-03-31T06:07:36.750Z,42.00
2019-03-31T06:10:06.774Z,43.77
2019-03-31T06:12:35.174Z,43.87
2019-03-31T06:15:03.651Z,42.03
2019-03-31T06:17:32.186Z,42.47
2019-03-31T06:20:00.608Z,43.00
2019-03-31T06:22:29.014Z,42.47
2019-03-31T06:24:57.431Z,41.80
2019-03-31T06:27:25.874Z,41.87
2019-03-31T06:29:54.390Z,40.60
2019-03-31T06:32:22.820Z,41.27
2019-03-31T06:34:51.238Z,41.03
2019-03-31T06:37:19.648Z,40.47
2019-03-31T06:39:48.050Z,39.70
2019-03-31T06:42:16.471Z,38.67
2019-03-31T06:44:44.875Z,39.10
2019-03-31T06:47:14.098Z,38.53
2019-03-31T06:49:42.558Z,38.53
2019-03-31T06:52:10.958Z,38.80
2019-03-31T06:54:39.368Z,36.73
2019-03-31T06:57:07.785Z,37.30
2019-03-31T06:59:36.185Z,36.27
2019-03-31T07:02:04.693Z,36.37
2019-03-31T07:04:33.112Z,36.57
2019-03-31T07:07:01.524Z,35.93
2019-03-31T07:09:29.925Z,36.07
2019-03-31T07:11:58.659Z,35.83
2019-03-31T07:14:27.066Z,33.77
2019-03-31T07:16:55.470Z,34.90
2019-03-31T07:19:23.886Z,34.63
2019-03-31T07:21:52.003Z,35.40
2019-03-31T07:24:20.458Z,35.83
2019-03-31T07:26:48.872Z,35.73
2019-03-31T07:29:17.362Z,36.37
2019-03-31T07:31:45.778Z,35.20
2019-03-31T07:34:14.187Z,35.00
2019-03-31T07:36:42.598Z,35.57
2019-03-31T07:39:11.295Z,35.30
2019-03-31T07:41:40.048Z,35.00
2019-03-31T07:44:08.785Z,34.50
2019-03-31T07:46:37.218Z,33.90
2019-03-31T07:49:05.626Z,34.67
2019-03-31T07:51:37.350Z,27.83
2019-03-31T07:54:04.302Z,29.30
2019-03-31T07:56:32.714Z,29.77
2019-03-31T07:59:01.138Z,30.47
2019-03-31T08:01:29.563Z,30.73
2019-03-31T08:03:57.972Z,30.60
2019-03-31T08:06:26.370Z,31.97
2019-03-31T08:08:54.863Z,30.83
2019-03-31T08:11:23.315Z,32.40
2019-03-31T08:13:55.033Z,33.17
2019-03-31T08:16:22.631Z,30.77
2019-03-31T08:18:51.043Z,32.67
2019-03-31T08:21:19.450Z,31.60
2019-03-31T08:23:47.874Z,32.03
2019-03-31T08:26:16.287Z,29.33
2019-03-31T08:28:44.693Z,28.70
2019-03-31T08:31:13.102Z,28.33
2019-03-31T08:33:41.509Z,27.33
2019-03-31T08:36:10.146Z,26.50
2019-03-31T08:38:38.574Z,27.53
2019-03-31T08:41:06.982Z,25.57
2019-03-31T08:43:35.398Z,24.20
2019-03-31T08:46:03.847Z,25.43
2019-03-31T08:48:32.250Z,23.77
2019-03-31T08:51:00.654Z,23.43
2019-03-31T08:53:29.546Z,22.17
2019-03-31T08:55:57.950Z,20.60
2019-03-31T08:58:26.364Z,21.03
2019-03-31T09:00:56.419Z,18.43
2019-03-31T09:03:24.814Z,17.73
2019-03-31T09:06:01.780Z,17.70
2019-03-31T09:08:23.707Z,17.93
2019-03-31T09:10:52.115Z,16.97
2019-03-31T09:13:20.538Z,16.47
2019-03-31T09:15:48.967Z,16.47
2019-03-31T09:18:17.362Z,16.27
2019-03-31T09:20:45.770Z,16.10
2019-03-31T09:23:14.202Z,15.67
2019-03-31T09:25:42.613Z,15.77
2019-03-31T09:28:11.015Z,16.33
2019-03-31T09:30:39.439Z,14.60
2019-03-31T09:33:07.939Z,16.33
2019-03-31T09:35:36.318Z,15.90
2019-03-31T09:38:04.735Z,16.17
2019-03-31T09:40:33.443Z,14.83
2019-03-31T09:43:01.859Z,15.37
2019-03-31T09:45:30.270Z,15.10
2019-03-31T09:47:58.686Z,14.90
2019-03-31T09:50:27.096Z,17.83
2019-03-31T09:52:55.503Z,14.13
2019-03-31T09:55:23.924Z,13.70
2019-03-31T09:57:52.327Z,13.37
2019-03-31T10:00:29.242Z,13.50
2019-03-31T10:03:00.956Z,13.77
2019-03-31T10:05:27.782Z,13.20
2019-03-31T10:07:56.282Z,12.57
2019-03-31T10:10:31.883Z,11.50
2019-03-31T10:13:00.630Z,12.90
2019-03-31T10:15:29.038Z,11.90
2019-03-31T10:17:57.523Z,11.80
2019-03-31T10:20:25.930Z,10.40
2019-03-31T10:23:13.678Z,12.00
2019-03-31T10:25:42.086Z,11.37
2019-03-31T10:28:10.520Z,10.47
2019-03-31T10:30:39.862Z,11.23
2019-03-31T10:33:09.278Z,10.90
2019-03-31T10:35:37.694Z,11.57
2019-03-31T10:38:06.544Z,10.70
2019-03-31T10:40:35.099Z,11.67
2019-03-31T10:43:03.540Z,12.13
2019-03-31T10:45:32.001Z,10.50
2019-03-31T10:48:00.414Z,11.37
2019-03-31T10:50:28.899Z,10.87
2019-03-31T10:52:57.310Z,11.33
2019-03-31T10:55:25.793Z,10.80
2019-03-31T10:57:54.202Z,11.53
2019-03-31T11:00:36.166Z,11.23
2019-03-31T11:03:05.810Z,10.63
2019-03-31T11:05:34.454Z,11.57
2019-03-31T11:08:03.001Z,11.87
2019-03-31T11:10:31.548Z,11.37
2019-03-31T11:12:59.962Z,10.70
2019-03-31T11:15:28.437Z,9.17
2019-03-31T11:17:56.851Z,8.30
2019-03-31T11:20:25.263Z,7.90
2019-03-31T11:23:10.540Z,8.47
2019-03-31T11:25:38.942Z,8.10
2019-03-31T11:28:07.338Z,7.20
2019-03-31T11:30:35.746Z,8.40
2019-03-31T11:33:07.314Z,7.87
2019-03-31T11:35:34.346Z,8.43
2019-03-31T11:38:02.778Z,7.33
2019-03-31T11:40:31.238Z,8.20
2019-03-31T11:42:59.642Z,8.23
2019-03-31T11:45:28.047Z,9.93
2019-03-31T11:47:56.462Z,8.53
2019-03-31T11:50:24.866Z,8.37
2019-03-31T11:52:53.287Z,7.73
2019-03-31T11:55:21.678Z,8.07
2019-03-31T11:57:50.078Z,8.23
2019-03-31T12:00:20.462Z,7.93
2019-03-31T12:02:48.866Z,8.10
2019-03-31T12:05:17.345Z,7.97
2019-03-31T12:07:47.353Z,7.33
2019-03-31T12:10:19.514Z,7.60
2019-03-31T12:12:46.134Z,7.83
2019-03-31T12:15:14.696Z,7.00
2019-03-31T12:17:43.094Z,7.53
2019-03-31T12:20:12.030Z,7.10
2019-03-31T12:22:40.450Z,6.80
2019-03-31T12:25:09.162Z,7.20
2019-03-31T12:27:37.568Z,7.00
2019-03-31T12:30:07.112Z,7.17
2019-03-31T12:32:38.303Z,6.90
2019-03-31T12:35:07.274Z,7.93
2019-03-31T12:37:42.872Z,6.50
2019-03-31T12:40:09.379Z,6.27
2019-03-31T12:42:37.785Z,6.47
2019-03-31T12:45:06.530Z,6.60
2019-03-31T12:47:34.930Z,6.27
2019-03-31T12:50:04.620Z,6.20
2019-03-31T12:52:46.068Z,6.37
2019-03-31T12:55:03.250Z,6.50
2019-03-31T12:57:31.650Z,6.00
2019-03-31T13:00:00.093Z,6.00
2019-03-31T13:02:28.738Z,6.13
2019-03-31T13:04:57.134Z,6.07
2019-03-31T13:07:25.536Z,5.90
2019-03-31T13:09:53.954Z,6.10
2019-03-31T13:12:22.354Z,6.37
2019-03-31T13:14:50.761Z,6.43
2019-03-31T13:17:19.187Z,6.47
2019-03-31T13:19:47.586Z,6.60
2019-03-31T13:22:15.990Z,6.27
2019-03-31T13:24:44.409Z,5.97
2019-03-31T13:27:12.807Z,6.30
2019-03-31T13:29:41.203Z,6.20
2019-03-31T13:32:09.620Z,6.40
2019-03-31T13:34:38.018Z,6.20
2019-03-31T13:37:06.426Z,6.10
2019-03-31T13:39:34.838Z,6.43
2019-03-31T13:42:03.239Z,6.50
2019-03-31T13:44:31.642Z,6.33
2019-03-31T13:47:00.051Z,6.03
2019-03-31T13:49:28.456Z,6.40
2019-03-31T13:51:56.847Z,6.77
2019-03-31T13:54:25.281Z,6.53
2019-03-31T13:56:54.186Z,5.80
2019-03-31T13:59:22.848Z,5.97
2019-03-31T14:01:51.273Z,6.17
2019-03-31T14:04:19.674Z,6.47
2019-03-31T14:06:48.070Z,5.50
2019-03-31T14:09:16.478Z,6.10
2019-03-31T14:11:48.291Z,5.80
2019-03-31T14:14:15.164Z,6.07
2019-03-31T14:16:43.586Z,6.27
2019-03-31T14:19:13.108Z,5.83
2019-03-31T14:21:41.775Z,6.20
2019-03-31T14:24:10.178Z,5.80
2019-03-31T14:26:38.597Z,5.80
2019-03-31T14:29:06.994Z,5.30
2019-03-31T14:31:35.395Z,4.80
2019-03-31T14:34:03.814Z,6.33
2019-03-31T14:36:32.214Z,6.47
2019-03-31T14:39:00.619Z,6.10
2019-03-31T14:41:29.042Z,6.17
2019-03-31T14:43:57.438Z,5.77
2019-03-31T14:46:25.834Z,6.07
2019-03-31T14:48:54.491Z,6.10
2019-03-31T14:51:22.895Z,5.80
2019-03-31T14:53:51.295Z,5.87
2019-03-31T14:56:19.698Z,6.07
2019-03-31T14:58:48.168Z,7.03
2019-03-31T15:01:16.574Z,6.57
2019-03-31T15:03:44.987Z,7.33
2019-03-31T15:06:13.387Z,7.50
2019-03-31T15:08:53.806Z,7.00
2019-03-31T15:11:11.922Z,7.20
2019-03-31T15:13:40.315Z,7.10
2019-03-31T15:16:08.718Z,6.70
2019-03-31T15:18:37.120Z,6.67
2019-03-31T15:21:05.519Z,6.20
2019-03-31T15:23:33.918Z,5.87
2019-03-31T15:26:02.330Z,5.97
2019-03-31T15:28:30.733Z,5.00
2019-03-31T15:30:59.130Z,5.23
2019-03-31T15:33:27.545Z,5.10
2019-03-31T15:35:55.945Z,4.47
2019-03-31T15:38:24.346Z,4.70
2019-03-31T15:40:52.761Z,4.83
2019-03-31T15:43:21.165Z,4.77
2019-03-31T15:45:49.570Z,4.20
2019-03-31T15:48:17.986Z,4.10
2019-03-31T15:50:46.403Z,3.80
2019-03-31T15:53:14.817Z,4.20
2019-03-31T15:55:43.225Z,4.20
2019-03-31T15:58:11.622Z,3.87
2019-03-31T16:00:40.023Z,3.73
2019-03-31T16:03:08.442Z,3.90
2019-03-31T16:05:36.840Z,4.00
2019-03-31T16:08:05.271Z,3.43
2019-03-31T16:10:33.759Z,3.97
2019-03-31T16:13:02.162Z,3.33
2019-03-31T16:15:30.558Z,3.40
2019-03-31T16:17:58.962Z,3.63
2019-03-31T16:20:27.366Z,3.03
2019-03-31T16:22:55.773Z,3.60
2019-03-31T16:25:31.833Z,2.93
2019-03-31T16:28:00.232Z,3.13
2019-03-31T16:30:29.205Z,3.40
2019-03-31T16:32:57.890Z,3.00
2019-03-31T16:35:26.283Z,3.23
2019-03-31T16:37:54.686Z,2.97
2019-03-31T16:40:23.102Z,2.97
2019-03-31T16:42:51.507Z,2.97
2019-03-31T16:45:19.906Z,2.90
2019-03-31T16:47:48.382Z,2.83
2019-03-31T16:50:16.998Z,2.73
2019-03-31T16:52:45.396Z,2.87
2019-03-31T16:55:13.797Z,2.60
2019-03-31T16:57:42.215Z,2.77
2019-03-31T17:00:10.959Z,2.93
2019-03-31T17:02:39.354Z,3.07
2019-03-31T17:05:20.964Z,3.00
2019-03-31T17:07:38.840Z,3.07
2019-03-31T17:10:08.579Z,2.80
2019-03-31T17:12:37.013Z,3.73
2019-03-31T17:15:07.355Z,3.43
2019-03-31T17:17:35.756Z,3.60
2019-03-31T17:20:06.012Z,3.53
2019-03-31T17:22:34.418Z,3.77
2019-03-31T17:25:03.350Z,3.33
2019-03-31T17:27:31.761Z,3.53
2019-03-31T17:30:00.383Z,3.60
2019-03-31T17:32:28.831Z,3.60
2019-03-31T17:34:57.242Z,3.40
2019-03-31T17:37:25.642Z,4.07
2019-03-31T17:40:05.409Z,3.50
2019-03-31T17:42:24.229Z,3.00
2019-03-31T17:44:52.670Z,3.40
2019-03-31T17:47:21.074Z,3.50
2019-03-31T17:49:49.482Z,3.00
2019-03-31T17:52:17.878Z,2.83
2019-03-31T17:54:46.294Z,3.43
2019-03-31T17:57:14.709Z,4.20
2019-03-31T17:59:43.194Z,3.30
2019-03-31T18:02:11.586Z,3.33
2019-03-31T18:04:40.002Z,3.43
2019-03-31T18:07:08.398Z,3.60
2019-03-31T18:09:36.803Z,3.83
2019-03-31T18:12:05.222Z,3.50
2019-03-31T18:14:33.618Z,3.00
2019-03-31T18:17:02.027Z,4.00
2019-03-31T18:19:30.698Z,2.70
2019-03-31T18:21:59.106Z,3.47
2019-03-31T18:24:27.512Z,2.80
2019-03-31T18:26:55.932Z,3.20
2019-03-31T18:29:24.327Z,2.90
2019-03-31T18:31:52.730Z,3.00
2019-03-31T18:34:21.136Z,3.30
2019-03-31T18:36:49.564Z,3.30
2019-03-31T18:39:17.970Z,3.40
2019-03-31T18:41:46.374Z,3.37
2019-03-31T18:44:14.789Z,3.47
2019-03-31T18:46:43.193Z,3.20
2019-03-31T18:49:11.617Z,3.87
2019-03-31T18:51:40.037Z,2.70
2019-03-31T18:54:16.538Z,3.50
2019-03-31T18:56:46.582Z,3.10
2019-03-31T18:59:32.588Z,3.63
2019-03-31T19:02:02.622Z,3.60
2019-03-31T19:04:50.699Z,3.73
2019-03-31T19:07:26.358Z,3.87
2019-03-31T19:10:05.250Z,3.20
2019-03-31T19:12:47.354Z,3.27
2019-03-31T19:15:17.474Z,3.57
2019-03-31T19:17:50.114Z,3.20
2019-03-31T19:20:36.683Z,3.73
2019-03-31T19:23:24.780Z,3.60
2019-03-31T19:26:06.438Z,4.10
2019-03-31T19:28:52.983Z,4.00
2019-03-31T19:31:23.054Z,3.90
2019-03-31T19:33:55.831Z,3.60
2019-03-31T19:36:32.098Z,3.77
2019-03-31T19:39:17.732Z,4.00
2019-03-31T19:41:50.590Z,3.30
2019-03-31T19:44:37.150Z,3.20
2019-03-31T19:47:07.195Z,3.50
2019-03-31T19:49:39.911Z,3.33
2019-03-31T19:52:26.031Z,3.30
2019-03-31T19:54:56.067Z,3.20
2019-03-31T19:57:29.055Z,3.63
2019-03-31T20:00:11.363Z,3.20
2019-03-31T20:02:41.414Z,3.17
2019-03-31T20:05:17.427Z,3.60
2019-03-31T20:07:47.721Z,3.40
2019-03-31T20:10:23.884Z,3.40
2019-03-31T20:12:53.993Z,2.93
2019-03-31T20:15:40.544Z,3.10
2019-03-31T20:18:10.578Z,3.63
2019-03-31T20:20:57.003Z,3.13
2019-03-31T20:23:32.510Z,3.17
2019-03-31T20:26:02.550Z,2.83
2019-03-31T20:28:32.583Z,2.80
2019-03-31T20:31:11.362Z,3.10
2019-03-31T20:33:44.455Z,2.83
2019-03-31T20:36:15.093Z,3.13
2019-03-31T20:38:45.400Z,2.60
2019-03-31T20:41:31.966Z,2.70
2019-03-31T20:44:00.367Z,2.73
2019-03-31T20:46:28.790Z,2.70
2019-03-31T20:48:57.194Z,2.80
2019-03-31T20:51:25.593Z,2.20
2019-03-31T20:53:53.995Z,3.03
2019-03-31T20:56:22.386Z,2.60
2019-03-31T20:58:50.802Z,2.37
2019-03-31T21:01:18.866Z,2.83
2019-03-31T21:03:47.258Z,2.90
2019-03-31T21:06:15.670Z,2.47
2019-03-31T21:08:44.066Z,2.57
2019-03-31T21:11:12.469Z,2.70
2019-03-31T21:13:40.872Z,2.70
2019-03-31T21:16:09.270Z,2.80
2019-03-31T21:18:37.663Z,2.53
2019-03-31T21:21:06.094Z,2.00
2019-03-31T21:23:34.490Z,2.40
2019-03-31T21:26:02.887Z,2.60
2019-03-31T21:28:31.580Z,2.80
2019-03-31T21:30:59.980Z,2.70
2019-03-31T21:33:28.042Z,2.90
2019-03-31T21:35:56.473Z,2.60
2019-03-31T21:38:24.846Z,2.80
2019-03-31T21:40:53.243Z,2.57
2019-03-31T21:43:21.653Z,2.17
2019-03-31T21:45:50.046Z,2.20
2019-03-31T21:48:18.450Z,3.00
2019-03-31T21:50:46.959Z,2.53
2019-03-31T21:53:15.350Z,2.53
2019-03-31T21:55:43.754Z,2.70
2019-03-31T21:58:12.163Z,2.30
2019-03-31T22:00:48.339Z,2.23
2019-03-31T22:03:16.827Z,2.60
2019-03-31T22:05:45.203Z,3.00
2019-03-31T22:08:13.679Z,2.30
2019-03-31T22:10:41.742Z,2.47
2019-03-31T22:13:10.138Z,2.70
2019-03-31T22:15:38.535Z,2.77
2019-03-31T22:18:07.008Z,2.60
2019-03-31T22:20:35.402Z,2.80
2019-03-31T22:23:03.890Z,2.50
2019-03-31T22:25:32.277Z,2.33
2019-03-31T22:28:00.724Z,2.53
2019-03-31T22:30:29.153Z,2.43
2019-03-31T22:32:57.542Z,2.43
2019-03-31T22:35:25.938Z,2.87
2019-03-31T22:37:54.338Z,2.90
2019-03-31T22:40:22.762Z,3.07
2019-03-31T22:42:51.215Z,2.53
2019-03-31T22:45:19.641Z,2.67
2019-03-31T22:47:48.046Z,3.20
2019-03-31T22:50:16.592Z,2.77
2019-03-31T22:52:44.986Z,2.50
2019-03-31T22:55:13.384Z,2.87
2019-03-31T22:57:41.788Z,2.83
2019-03-31T23:00:13.662Z,2.77
2019-03-31T23:02:42.064Z,3.03
2019-03-31T23:05:10.521Z,2.80
2019-03-31T23:07:38.920Z,2.70
2019-03-31T23:10:07.317Z,2.77
2019-03-31T23:12:35.967Z,3.17
2019-03-31T23:15:06.402Z,2.63
2019-03-31T23:17:34.862Z,2.73
2019-03-31T23:20:03.738Z,2.60
2019-03-31T23:22:32.162Z,2.63
2019-03-31T23:25:00.714Z,2.57
2019-03-31T23:27:29.582Z,2.63
2019-03-31T23:29:57.979Z,2.80
2019-03-31T23:32:26.370Z,2.30
2019-03-31T23:34:54.786Z,2.73
2019-03-31T23:37:23.182Z,2.30
2019-03-31T23:39:51.582Z,2.73
2019-03-31T23:42:19.991Z,3.10
2019-03-31T23:44:48.387Z,3.33
2019-03-31T23:47:16.778Z,3.03
2019-03-31T23:49:45.195Z,3.00
2019-03-31T23:52:13.586Z,3.00
2019-03-31T23:54:41.989Z,3.27
2019-03-31T23:57:10.398Z,3.60
2019-03-31T23:59:39.061Z,4.17
